sensor_id;sensor_type;location;lat;lon;timestamp;P1;durP1;ratioP1;P2;durP2;ratioP2
39654;SDS011;25336;59.944;11.010;2023-02-15T00:02:23;34.03;;;20.05;;
39654;SDS011;25336;59.944;11.010;2023-02-15T00:04:49;31.95;;;17.55;;
39654;SDS011;25336;59.944;11.010;2023-02-15T00:07:15;32.05;;;19.00;;
39654;SDS011;25336;59.944;11.010;2023-02-15T00:09:42;29.63;;;17.42;;
39654;SDS011;25336;59.944;11.010;2023-02-15T00:12:09;29.75;;;18.02;;
39654;SDS011;25336;59.944;11.010;2023-02-15T00:14:35;25.90;;;17.00;;
39654;SDS011;25336;59.944;11.010;2023-02-15T00:17:00;31.90;;;19.10;;
39654;SDS011;25336;59.944;11.010;2023-02-15T00:19:26;32.35;;;20.23;;
39654;SDS011;25336;59.944;11.010;2023-02-15T00:21:52;36.15;;;20.33;;
39654;SDS011;25336;59.944;11.010;2023-02-15T00:24:18;37.42;;;20.52;;
39654;SDS011;25336;59.944;11.010;2023-02-15T00:26:44;37.17;;;20.45;;
39654;SDS011;25336;59.944;11.010;2023-02-15T00:29:12;40.40;;;22.67;;
39654;SDS011;25336;59.944;11.010;2023-02-15T00:31:39;37.90;;;20.10;;
39654;SDS011;25336;59.944;11.010;2023-02-15T00:34:06;35.38;;;20.92;;
39654;SDS011;25336;59.944;11.010;2023-02-15T00:36:36;34.83;;;20.25;;
39654;SDS011;25336;59.944;11.010;2023-02-15T00:39:02;35.95;;;20.40;;
39654;SDS011;25336;59.944;11.010;2023-02-15T00:41:29;32.70;;;18.00;;
39654;SDS011;25336;59.944;11.010;2023-02-15T00:43:56;29.52;;;17.70;;
39654;SDS011;25336;59.944;11.010;2023-02-15T00:46:21;26.38;;;16.23;;
39654;SDS011;25336;59.944;11.010;2023-02-15T00:48:47;26.48;;;16.05;;
39654;SDS011;25336;59.944;11.010;2023-02-15T00:51:12;26.42;;;15.10;;
39654;SDS011;25336;59.944;11.010;2023-02-15T00:53:38;23.60;;;14.68;;
39654;SDS011;25336;59.944;11.010;2023-02-15T00:56:03;24.50;;;15.68;;
39654;SDS011;25336;59.944;11.010;2023-02-15T00:58:29;23.70;;;15.18;;
39654;SDS011;25336;59.944;11.010;2023-02-15T01:00:54;21.27;;;13.40;;
39654;SDS011;25336;59.944;11.010;2023-02-15T01:03:26;24.63;;;14.63;;
39654;SDS011;25336;59.944;11.010;2023-02-15T01:05:54;25.52;;;13.82;;
39654;SDS011;25336;59.944;11.010;2023-02-15T01:08:20;22.05;;;14.23;;
39654;SDS011;25336;59.944;11.010;2023-02-15T01:10:45;25.02;;;14.88;;
39654;SDS011;25336;59.944;11.010;2023-02-15T01:13:12;21.45;;;13.43;;
39654;SDS011;25336;59.944;11.010;2023-02-15T01:15:38;26.20;;;14.90;;
39654;SDS011;25336;59.944;11.010;2023-02-15T01:18:04;22.73;;;13.60;;
39654;SDS011;25336;59.944;11.010;2023-02-15T01:20:29;24.02;;;13.75;;
39654;SDS011;25336;59.944;11.010;2023-02-15T01:22:58;22.83;;;13.57;;
39654;SDS011;25336;59.944;11.010;2023-02-15T01:25:24;25.83;;;14.90;;
39654;SDS011;25336;59.944;11.010;2023-02-15T01:27:50;28.10;;;13.55;;
39654;SDS011;25336;59.944;11.010;2023-02-15T01:30:16;19.67;;;13.27;;
39654;SDS011;25336;59.944;11.010;2023-02-15T01:32:42;21.60;;;13.18;;
39654;SDS011;25336;59.944;11.010;2023-02-15T01:35:08;20.55;;;12.35;;
39654;SDS011;25336;59.944;11.010;2023-02-15T01:37:34;21.83;;;14.05;;
39654;SDS011;25336;59.944;11.010;2023-02-15T01:40:01;21.50;;;12.65;;
39654;SDS011;25336;59.944;11.010;2023-02-15T01:42:31;22.00;;;13.20;;
39654;SDS011;25336;59.944;11.010;2023-02-15T01:45:00;22.20;;;12.77;;
39654;SDS011;25336;59.944;11.010;2023-02-15T01:47:40;24.38;;;14.52;;
39654;SDS011;25336;59.944;11.010;2023-02-15T01:50:16;25.02;;;14.30;;
39654;SDS011;25336;59.944;11.010;2023-02-15T01:53:18;23.42;;;14.40;;
39654;SDS011;25336;59.944;11.010;2023-02-15T01:55:54;22.50;;;14.18;;
39654;SDS011;25336;59.944;11.010;2023-02-15T01:58:20;21.52;;;13.60;;
39654;SDS011;25336;59.944;11.010;2023-02-15T02:00:47;23.88;;;13.35;;
39654;SDS011;25336;59.944;11.010;2023-02-15T02:03:13;23.45;;;12.82;;
39654;SDS011;25336;59.944;11.010;2023-02-15T02:05:39;20.10;;;13.00;;
39654;SDS011;25336;59.944;11.010;2023-02-15T02:08:06;25.10;;;14.43;;
39654;SDS011;25336;59.944;11.010;2023-02-15T02:10:34;23.35;;;13.70;;
39654;SDS011;25336;59.944;11.010;2023-02-15T02:13:01;22.40;;;13.73;;
39654;SDS011;25336;59.944;11.010;2023-02-15T02:18:23;22.83;;;13.57;;
39654;SDS011;25336;59.944;11.010;2023-02-15T02:29:32;20.75;;;12.82;;
39654;SDS011;25336;59.944;11.010;2023-02-15T02:37:36;20.50;;;13.00;;
39654;SDS011;25336;59.944;11.010;2023-02-15T02:40:11;24.65;;;12.52;;
39654;SDS011;25336;59.944;11.010;2023-02-15T02:43:02;23.50;;;13.18;;
39654;SDS011;25336;59.944;11.010;2023-02-15T02:45:58;23.40;;;12.80;;
39654;SDS011;25336;59.944;11.010;2023-02-15T02:48:25;21.52;;;12.25;;
39654;SDS011;25336;59.944;11.010;2023-02-15T02:50:54;22.35;;;13.73;;
39654;SDS011;25336;59.944;11.010;2023-02-15T02:53:20;21.63;;;13.00;;
39654;SDS011;25336;59.944;11.010;2023-02-15T02:55:47;22.27;;;13.15;;
39654;SDS011;25336;59.944;11.010;2023-02-15T02:58:35;20.08;;;12.68;;
39654;SDS011;25336;59.944;11.010;2023-02-15T03:01:14;23.20;;;12.15;;
39654;SDS011;25336;59.944;11.010;2023-02-15T03:03:45;21.55;;;12.95;;
39654;SDS011;25336;59.944;11.010;2023-02-15T03:06:18;20.73;;;11.95;;
39654;SDS011;25336;59.944;11.010;2023-02-15T03:08:51;20.77;;;12.30;;
39654;SDS011;25336;59.944;11.010;2023-02-15T03:11:22;22.23;;;12.60;;
39654;SDS011;25336;59.944;11.010;2023-02-15T03:13:47;19.20;;;12.23;;
39654;SDS011;25336;59.944;11.010;2023-02-15T03:16:14;22.42;;;12.00;;
39654;SDS011;25336;59.944;11.010;2023-02-15T03:21:45;21.27;;;12.77;;
39654;SDS011;25336;59.944;11.010;2023-02-15T03:24:23;21.67;;;11.77;;
39654;SDS011;25336;59.944;11.010;2023-02-15T03:26:52;16.88;;;11.43;;
39654;SDS011;25336;59.944;11.010;2023-02-15T03:29:20;24.58;;;13.07;;
39654;SDS011;25336;59.944;11.010;2023-02-15T03:31:49;18.65;;;12.38;;
39654;SDS011;25336;59.944;11.010;2023-02-15T03:34:19;20.52;;;12.20;;
39654;SDS011;25336;59.944;11.010;2023-02-15T03:44:42;23.02;;;12.10;;
39654;SDS011;25336;59.944;11.010;2023-02-15T03:47:17;19.90;;;11.40;;
39654;SDS011;25336;59.944;11.010;2023-02-15T03:49:57;20.15;;;11.25;;
39654;SDS011;25336;59.944;11.010;2023-02-15T03:52:56;18.00;;;11.48;;
39654;SDS011;25336;59.944;11.010;2023-02-15T03:55:25;16.80;;;10.90;;
39654;SDS011;25336;59.944;11.010;2023-02-15T03:57:51;20.05;;;12.07;;
39654;SDS011;25336;59.944;11.010;2023-02-15T04:00:36;22.50;;;12.05;;
39654;SDS011;25336;59.944;11.010;2023-02-15T04:03:39;20.52;;;11.98;;
39654;SDS011;25336;59.944;11.010;2023-02-15T04:06:06;16.95;;;10.98;;
39654;SDS011;25336;59.944;11.010;2023-02-15T04:08:31;21.55;;;12.77;;
39654;SDS011;25336;59.944;11.010;2023-02-15T04:11:16;19.67;;;11.73;;
39654;SDS011;25336;59.944;11.010;2023-02-15T04:13:41;19.35;;;12.20;;
39654;SDS011;25336;59.944;11.010;2023-02-15T04:16:07;19.30;;;11.57;;
39654;SDS011;25336;59.944;11.010;2023-02-15T04:18:40;21.70;;;12.27;;
39654;SDS011;25336;59.944;11.010;2023-02-15T04:21:27;18.88;;;11.40;;
39654;SDS011;25336;59.944;11.010;2023-02-15T04:24:13;20.40;;;11.55;;
39654;SDS011;25336;59.944;11.010;2023-02-15T04:26:58;20.02;;;12.43;;
39654;SDS011;25336;59.944;11.010;2023-02-15T04:29:24;23.55;;;12.88;;
39654;SDS011;25336;59.944;11.010;2023-02-15T04:31:51;18.90;;;11.88;;
39654;SDS011;25336;59.944;11.010;2023-02-15T04:34:17;18.65;;;11.50;;
39654;SDS011;25336;59.944;11.010;2023-02-15T04:36:43;19.77;;;11.73;;
39654;SDS011;25336;59.944;11.010;2023-02-15T04:39:09;17.95;;;11.05;;
39654;SDS011;25336;59.944;11.010;2023-02-15T04:41:37;18.33;;;10.45;;
39654;SDS011;25336;59.944;11.010;2023-02-15T04:44:03;18.67;;;11.13;;
39654;SDS011;25336;59.944;11.010;2023-02-15T04:46:28;18.75;;;11.02;;
39654;SDS011;25336;59.944;11.010;2023-02-15T04:48:54;17.95;;;11.35;;
39654;SDS011;25336;59.944;11.010;2023-02-15T04:51:20;17.88;;;11.45;;
39654;SDS011;25336;59.944;11.010;2023-02-15T04:53:45;19.30;;;11.95;;
39654;SDS011;25336;59.944;11.010;2023-02-15T04:56:11;17.23;;;10.77;;
39654;SDS011;25336;59.944;11.010;2023-02-15T04:58:37;16.65;;;10.13;;
39654;SDS011;25336;59.944;11.010;2023-02-15T05:01:05;24.75;;;14.10;;
39654;SDS011;25336;59.944;11.010;2023-02-15T05:03:32;21.63;;;12.30;;
39654;SDS011;25336;59.944;11.010;2023-02-15T05:05:58;18.55;;;11.57;;
39654;SDS011;25336;59.944;11.010;2023-02-15T05:08:23;20.95;;;12.65;;
39654;SDS011;25336;59.944;11.010;2023-02-15T05:10:49;22.05;;;12.57;;
39654;SDS011;25336;59.944;11.010;2023-02-15T05:13:15;18.85;;;11.38;;
39654;SDS011;25336;59.944;11.010;2023-02-15T05:15:41;15.80;;;10.18;;
39654;SDS011;25336;59.944;11.010;2023-02-15T05:18:06;18.52;;;11.02;;
39654;SDS011;25336;59.944;11.010;2023-02-15T05:20:32;18.50;;;10.60;;
39654;SDS011;25336;59.944;11.010;2023-02-15T05:22:58;19.00;;;11.90;;
39654;SDS011;25336;59.944;11.010;2023-02-15T05:25:24;22.00;;;11.82;;
39654;SDS011;25336;59.944;11.010;2023-02-15T05:28:09;18.75;;;11.13;;
39654;SDS011;25336;59.944;11.010;2023-02-15T05:30:48;16.00;;;9.98;;
39654;SDS011;25336;59.944;11.010;2023-02-15T05:33:15;19.38;;;10.43;;
39654;SDS011;25336;59.944;11.010;2023-02-15T05:35:41;16.85;;;10.77;;
39654;SDS011;25336;59.944;11.010;2023-02-15T05:38:06;15.05;;;9.80;;
39654;SDS011;25336;59.944;11.010;2023-02-15T05:40:32;16.75;;;10.15;;
39654;SDS011;25336;59.944;11.010;2023-02-15T05:42:58;17.17;;;11.10;;
39654;SDS011;25336;59.944;11.010;2023-02-15T05:45:23;16.17;;;10.05;;
39654;SDS011;25336;59.944;11.010;2023-02-15T05:47:49;16.25;;;10.93;;
39654;SDS011;25336;59.944;11.010;2023-02-15T05:50:15;17.23;;;10.85;;
39654;SDS011;25336;59.944;11.010;2023-02-15T05:52:41;19.83;;;11.10;;
39654;SDS011;25336;59.944;11.010;2023-02-15T05:55:06;16.83;;;10.18;;
39654;SDS011;25336;59.944;11.010;2023-02-15T05:57:37;17.45;;;10.82;;
39654;SDS011;25336;59.944;11.010;2023-02-15T06:00:03;22.58;;;11.82;;
39654;SDS011;25336;59.944;11.010;2023-02-15T06:02:29;19.20;;;11.73;;
39654;SDS011;25336;59.944;11.010;2023-02-15T06:04:58;19.48;;;12.00;;
39654;SDS011;25336;59.944;11.010;2023-02-15T06:07:23;20.75;;;12.20;;
39654;SDS011;25336;59.944;11.010;2023-02-15T06:09:49;22.48;;;12.55;;
39654;SDS011;25336;59.944;11.010;2023-02-15T06:12:15;26.20;;;12.70;;
39654;SDS011;25336;59.944;11.010;2023-02-15T06:14:40;24.67;;;13.30;;
39654;SDS011;25336;59.944;11.010;2023-02-15T06:17:06;22.23;;;12.63;;
39654;SDS011;25336;59.944;11.010;2023-02-15T06:19:31;20.58;;;12.73;;
39654;SDS011;25336;59.944;11.010;2023-02-15T06:21:57;19.50;;;11.60;;
39654;SDS011;25336;59.944;11.010;2023-02-15T06:24:22;22.40;;;12.85;;
39654;SDS011;25336;59.944;11.010;2023-02-15T06:26:48;23.42;;;14.23;;
39654;SDS011;25336;59.944;11.010;2023-02-15T06:29:13;22.25;;;12.77;;
39654;SDS011;25336;59.944;11.010;2023-02-15T06:31:39;19.85;;;12.27;;
39654;SDS011;25336;59.944;11.010;2023-02-15T06:34:05;19.23;;;11.82;;
39654;SDS011;25336;59.944;11.010;2023-02-15T06:36:30;20.30;;;12.25;;
39654;SDS011;25336;59.944;11.010;2023-02-15T06:38:56;21.20;;;12.50;;
39654;SDS011;25336;59.944;11.010;2023-02-15T06:41:22;21.33;;;13.10;;
39654;SDS011;25336;59.944;11.010;2023-02-15T06:43:48;22.38;;;12.90;;
39654;SDS011;25336;59.944;11.010;2023-02-15T06:46:14;19.23;;;11.98;;
39654;SDS011;25336;59.944;11.010;2023-02-15T06:48:39;21.98;;;12.43;;
39654;SDS011;25336;59.944;11.010;2023-02-15T06:51:05;42.42;;;15.32;;
39654;SDS011;25336;59.944;11.010;2023-02-15T06:53:31;29.13;;;13.63;;
39654;SDS011;25336;59.944;11.010;2023-02-15T06:56:03;19.27;;;11.18;;
39654;SDS011;25336;59.944;11.010;2023-02-15T06:58:38;20.77;;;12.20;;
39654;SDS011;25336;59.944;11.010;2023-02-15T07:01:04;18.40;;;10.88;;
39654;SDS011;25336;59.944;11.010;2023-02-15T07:03:31;23.70;;;13.57;;
39654;SDS011;25336;59.944;11.010;2023-02-15T07:05:58;22.75;;;12.50;;
39654;SDS011;25336;59.944;11.010;2023-02-15T07:08:24;23.10;;;13.07;;
39654;SDS011;25336;59.944;11.010;2023-02-15T07:10:51;24.40;;;13.35;;
39654;SDS011;25336;59.944;11.010;2023-02-15T07:13:17;20.80;;;13.95;;
39654;SDS011;25336;59.944;11.010;2023-02-15T07:15:44;20.70;;;12.48;;
39654;SDS011;25336;59.944;11.010;2023-02-15T07:18:10;20.83;;;11.80;;
39654;SDS011;25336;59.944;11.010;2023-02-15T07:20:36;18.75;;;12.18;;
39654;SDS011;25336;59.944;11.010;2023-02-15T07:23:03;17.95;;;10.80;;
39654;SDS011;25336;59.944;11.010;2023-02-15T07:25:29;17.80;;;11.02;;
39654;SDS011;25336;59.944;11.010;2023-02-15T07:27:58;15.88;;;10.52;;
39654;SDS011;25336;59.944;11.010;2023-02-15T07:30:25;16.05;;;10.13;;
39654;SDS011;25336;59.944;11.010;2023-02-15T07:32:54;14.70;;;9.80;;
39654;SDS011;25336;59.944;11.010;2023-02-15T07:35:52;13.55;;;8.70;;
39654;SDS011;25336;59.944;11.010;2023-02-15T07:38:20;22.63;;;10.75;;
39654;SDS011;25336;59.944;11.010;2023-02-15T07:40:46;18.38;;;11.95;;
39654;SDS011;25336;59.944;11.010;2023-02-15T07:43:12;16.45;;;10.88;;
39654;SDS011;25336;59.944;11.010;2023-02-15T07:45:38;17.67;;;11.02;;
39654;SDS011;25336;59.944;11.010;2023-02-15T07:48:04;12.05;;;8.95;;
39654;SDS011;25336;59.944;11.010;2023-02-15T07:50:30;17.52;;;10.27;;
39654;SDS011;25336;59.944;11.010;2023-02-15T07:52:55;15.05;;;9.68;;
39654;SDS011;25336;59.944;11.010;2023-02-15T07:55:21;18.35;;;11.18;;
39654;SDS011;25336;59.944;11.010;2023-02-15T07:57:47;17.10;;;10.48;;
39654;SDS011;25336;59.944;11.010;2023-02-15T08:00:15;18.42;;;10.57;;
39654;SDS011;25336;59.944;11.010;2023-02-15T08:02:42;19.45;;;10.73;;
39654;SDS011;25336;59.944;11.010;2023-02-15T08:07:39;13.75;;;9.88;;
39654;SDS011;25336;59.944;11.010;2023-02-15T08:10:04;17.48;;;11.18;;
39654;SDS011;25336;59.944;11.010;2023-02-15T08:12:30;16.40;;;9.95;;
39654;SDS011;25336;59.944;11.010;2023-02-15T08:14:56;17.65;;;9.82;;
39654;SDS011;25336;59.944;11.010;2023-02-15T08:17:22;17.30;;;10.35;;
39654;SDS011;25336;59.944;11.010;2023-02-15T08:19:48;13.55;;;9.45;;
39654;SDS011;25336;59.944;11.010;2023-02-15T08:22:14;16.17;;;10.35;;
39654;SDS011;25336;59.944;11.010;2023-02-15T08:24:40;15.77;;;9.88;;
39654;SDS011;25336;59.944;11.010;2023-02-15T08:27:07;14.15;;;9.80;;
39654;SDS011;25336;59.944;11.010;2023-02-15T08:29:34;19.88;;;10.90;;
39654;SDS011;25336;59.944;11.010;2023-02-15T08:32:03;15.35;;;9.50;;
39654;SDS011;25336;59.944;11.010;2023-02-15T08:34:31;14.75;;;9.75;;
39654;SDS011;25336;59.944;11.010;2023-02-15T08:36:58;16.00;;;9.57;;
39654;SDS011;25336;59.944;11.010;2023-02-15T08:39:24;17.85;;;10.68;;
39654;SDS011;25336;59.944;11.010;2023-02-15T08:41:49;18.30;;;10.88;;
39654;SDS011;25336;59.944;11.010;2023-02-15T08:44:16;21.13;;;11.07;;
39654;SDS011;25336;59.944;11.010;2023-02-15T08:46:43;27.13;;;13.15;;
39654;SDS011;25336;59.944;11.010;2023-02-15T08:49:12;49.50;;;22.85;;
39654;SDS011;25336;59.944;11.010;2023-02-15T08:51:39;26.10;;;13.65;;
39654;SDS011;25336;59.944;11.010;2023-02-15T08:54:15;20.25;;;11.32;;
39654;SDS011;25336;59.944;11.010;2023-02-15T08:56:46;16.25;;;10.20;;
39654;SDS011;25336;59.944;11.010;2023-02-15T08:59:19;18.48;;;10.68;;
39654;SDS011;25336;59.944;11.010;2023-02-15T09:01:47;14.80;;;8.82;;
39654;SDS011;25336;59.944;11.010;2023-02-15T09:04:14;13.43;;;9.65;;
39654;SDS011;25336;59.944;11.010;2023-02-15T09:06:41;13.70;;;9.07;;
39654;SDS011;25336;59.944;11.010;2023-02-15T09:09:09;16.40;;;10.30;;
39654;SDS011;25336;59.944;11.010;2023-02-15T09:11:36;17.92;;;10.57;;
39654;SDS011;25336;59.944;11.010;2023-02-15T09:14:04;17.10;;;8.82;;
39654;SDS011;25336;59.944;11.010;2023-02-15T09:16:36;14.00;;;8.18;;
39654;SDS011;25336;59.944;11.010;2023-02-15T09:19:03;13.40;;;8.15;;
39654;SDS011;25336;59.944;11.010;2023-02-15T09:21:33;14.25;;;9.02;;
39654;SDS011;25336;59.944;11.010;2023-02-15T09:24:03;14.85;;;9.13;;
39654;SDS011;25336;59.944;11.010;2023-02-15T09:26:31;13.80;;;9.00;;
39654;SDS011;25336;59.944;11.010;2023-02-15T09:29:00;12.18;;;8.82;;
39654;SDS011;25336;59.944;11.010;2023-02-15T09:31:29;13.77;;;8.68;;
39654;SDS011;25336;59.944;11.010;2023-02-15T09:33:57;13.15;;;8.98;;
39654;SDS011;25336;59.944;11.010;2023-02-15T09:36:26;12.00;;;7.68;;
39654;SDS011;25336;59.944;11.010;2023-02-15T09:39:07;14.45;;;9.77;;
39654;SDS011;25336;59.944;11.010;2023-02-15T10:02:48;20.25;;;10.60;;
39654;SDS011;25336;59.944;11.010;2023-02-15T10:19:56;14.52;;;8.55;;
39654;SDS011;25336;59.944;11.010;2023-02-15T10:25:20;13.55;;;8.68;;
39654;SDS011;25336;59.944;11.010;2023-02-15T10:28:06;13.88;;;7.90;;
39654;SDS011;25336;59.944;11.010;2023-02-15T10:30:50;13.98;;;8.57;;
39654;SDS011;25336;59.944;11.010;2023-02-15T10:36:15;15.48;;;8.60;;
39654;SDS011;25336;59.944;11.010;2023-02-15T10:41:25;12.13;;;7.60;;
39654;SDS011;25336;59.944;11.010;2023-02-15T11:08:36;14.25;;;8.45;;
39654;SDS011;25336;59.944;11.010;2023-02-15T11:11:28;14.00;;;8.70;;
39654;SDS011;25336;59.944;11.010;2023-02-15T11:13:58;16.77;;;8.57;;
39654;SDS011;25336;59.944;11.010;2023-02-15T11:16:42;11.80;;;8.35;;
39654;SDS011;25336;59.944;11.010;2023-02-15T11:19:13;16.23;;;7.90;;
39654;SDS011;25336;59.944;11.010;2023-02-15T11:21:51;11.57;;;7.18;;
39654;SDS011;25336;59.944;11.010;2023-02-15T11:24:25;12.40;;;7.93;;
39654;SDS011;25336;59.944;11.010;2023-02-15T11:27:00;14.00;;;8.05;;
39654;SDS011;25336;59.944;11.010;2023-02-15T11:29:41;10.85;;;8.45;;
39654;SDS011;25336;59.944;11.010;2023-02-15T11:32:37;12.18;;;7.85;;
39654;SDS011;25336;59.944;11.010;2023-02-15T11:40:48;14.40;;;8.00;;
39654;SDS011;25336;59.944;11.010;2023-02-15T11:46:04;13.73;;;8.77;;
39654;SDS011;25336;59.944;11.010;2023-02-15T11:48:31;13.73;;;9.43;;
39654;SDS011;25336;59.944;11.010;2023-02-15T11:50:57;15.88;;;9.13;;
39654;SDS011;25336;59.944;11.010;2023-02-15T11:53:24;15.25;;;9.63;;
39654;SDS011;25336;59.944;11.010;2023-02-15T11:55:53;15.45;;;8.93;;
39654;SDS011;25336;59.944;11.010;2023-02-15T11:58:36;17.65;;;9.82;;
39654;SDS011;25336;59.944;11.010;2023-02-15T12:03:54;17.10;;;9.13;;
39654;SDS011;25336;59.944;11.010;2023-02-15T12:06:27;15.80;;;9.05;;
39654;SDS011;25336;59.944;11.010;2023-02-15T12:11:36;17.17;;;10.00;;
39654;SDS011;25336;59.944;11.010;2023-02-15T12:14:08;14.85;;;9.43;;
39654;SDS011;25336;59.944;11.010;2023-02-15T12:16:46;15.98;;;10.25;;
39654;SDS011;25336;59.944;11.010;2023-02-15T12:19:27;16.33;;;9.25;;
39654;SDS011;25336;59.944;11.010;2023-02-15T12:21:53;18.70;;;10.07;;
39654;SDS011;25336;59.944;11.010;2023-02-15T12:24:30;16.45;;;9.70;;
39654;SDS011;25336;59.944;11.010;2023-02-15T12:29:35;15.95;;;9.65;;
39654;SDS011;25336;59.944;11.010;2023-02-15T12:32:08;17.35;;;9.30;;
39654;SDS011;25336;59.944;11.010;2023-02-15T12:34:43;14.93;;;8.98;;
39654;SDS011;25336;59.944;11.010;2023-02-15T12:37:31;15.27;;;8.77;;
39654;SDS011;25336;59.944;11.010;2023-02-15T12:39:57;18.48;;;9.70;;
39654;SDS011;25336;59.944;11.010;2023-02-15T12:42:25;14.55;;;9.70;;
39654;SDS011;25336;59.944;11.010;2023-02-15T12:45:00;15.93;;;9.65;;
39654;SDS011;25336;59.944;11.010;2023-02-15T12:47:28;14.23;;;9.63;;
39654;SDS011;25336;59.944;11.010;2023-02-15T12:52:42;17.60;;;10.50;;
39654;SDS011;25336;59.944;11.010;2023-02-15T12:55:25;21.15;;;10.57;;
39654;SDS011;25336;59.944;11.010;2023-02-15T13:01:22;23.30;;;10.48;;
39654;SDS011;25336;59.944;11.010;2023-02-15T13:06:17;26.58;;;11.23;;
39654;SDS011;25336;59.944;11.010;2023-02-15T13:08:50;17.83;;;10.10;;
39654;SDS011;25336;59.944;11.010;2023-02-15T13:11:36;18.73;;;11.27;;
39654;SDS011;25336;59.944;11.010;2023-02-15T13:14:03;19.58;;;12.30;;
39654;SDS011;25336;59.944;11.010;2023-02-15T13:16:58;22.23;;;12.65;;
39654;SDS011;25336;59.944;11.010;2023-02-15T13:19:34;26.85;;;12.73;;
39654;SDS011;25336;59.944;11.010;2023-02-15T13:22:02;20.15;;;11.50;;
39654;SDS011;25336;59.944;11.010;2023-02-15T13:27:23;28.02;;;12.15;;
39654;SDS011;25336;59.944;11.010;2023-02-15T13:29:55;24.40;;;11.85;;
39654;SDS011;25336;59.944;11.010;2023-02-15T13:32:29;23.63;;;12.35;;
39654;SDS011;25336;59.944;11.010;2023-02-15T13:34:58;37.60;;;14.30;;
39654;SDS011;25336;59.944;11.010;2023-02-15T13:40:33;28.65;;;12.98;;
39654;SDS011;25336;59.944;11.010;2023-02-15T13:43:32;22.63;;;12.57;;
39654;SDS011;25336;59.944;11.010;2023-02-15T13:46:27;24.45;;;12.73;;
39654;SDS011;25336;59.944;11.010;2023-02-15T14:01:36;28.58;;;13.77;;
39654;SDS011;25336;59.944;11.010;2023-02-15T14:09:40;31.77;;;14.57;;
39654;SDS011;25336;59.944;11.010;2023-02-15T14:12:36;31.45;;;13.57;;
39654;SDS011;25336;59.944;11.010;2023-02-15T14:21:02;33.22;;;14.07;;
39654;SDS011;25336;59.944;11.010;2023-02-15T14:26:45;32.20;;;14.48;;
39654;SDS011;25336;59.944;11.010;2023-02-15T14:32:18;32.60;;;14.88;;
39654;SDS011;25336;59.944;11.010;2023-02-15T14:35:01;33.47;;;14.65;;
39654;SDS011;25336;59.944;11.010;2023-02-15T14:37:49;33.92;;;14.57;;
39654;SDS011;25336;59.944;11.010;2023-02-15T14:40:37;25.52;;;12.63;;
39654;SDS011;25336;59.944;11.010;2023-02-15T14:48:42;37.42;;;15.90;;
39654;SDS011;25336;59.944;11.010;2023-02-15T15:02:31;35.35;;;14.32;;
39654;SDS011;25336;59.944;11.010;2023-02-15T15:07:53;32.50;;;15.55;;
39654;SDS011;25336;59.944;11.010;2023-02-15T15:12:50;38.83;;;16.40;;
39654;SDS011;25336;59.944;11.010;2023-02-15T15:25:42;46.85;;;18.20;;
39654;SDS011;25336;59.944;11.010;2023-02-15T15:45:58;40.30;;;16.67;;
39654;SDS011;25336;59.944;11.010;2023-02-15T15:48:32;60.33;;;20.02;;
39654;SDS011;25336;59.944;11.010;2023-02-15T15:51:05;46.55;;;19.25;;
39654;SDS011;25336;59.944;11.010;2023-02-15T15:53:40;39.47;;;19.50;;
39654;SDS011;25336;59.944;11.010;2023-02-15T15:56:20;45.78;;;19.08;;
39654;SDS011;25336;59.944;11.010;2023-02-15T15:58:54;44.17;;;17.92;;
39654;SDS011;25336;59.944;11.010;2023-02-15T16:01:29;34.78;;;15.48;;
39654;SDS011;25336;59.944;11.010;2023-02-15T16:03:57;54.25;;;19.60;;
39654;SDS011;25336;59.944;11.010;2023-02-15T16:06:36;45.58;;;19.52;;
39654;SDS011;25336;59.944;11.010;2023-02-15T16:09:36;40.80;;;17.08;;
39654;SDS011;25336;59.944;11.010;2023-02-15T16:11:56;40.92;;;17.55;;
39654;SDS011;25336;59.944;11.010;2023-02-15T16:14:31;42.60;;;18.05;;
39654;SDS011;25336;59.944;11.010;2023-02-15T16:17:01;38.08;;;17.80;;
39654;SDS011;25336;59.944;11.010;2023-02-15T16:19:30;42.83;;;17.27;;
39654;SDS011;25336;59.944;11.010;2023-02-15T16:22:02;55.85;;;18.15;;
39654;SDS011;25336;59.944;11.010;2023-02-15T16:24:35;52.83;;;19.88;;
39654;SDS011;25336;59.944;11.010;2023-02-15T16:35:35;46.60;;;18.50;;
39654;SDS011;25336;59.944;11.010;2023-02-15T16:38:03;52.10;;;19.00;;
39654;SDS011;25336;59.944;11.010;2023-02-15T16:40:34;45.88;;;18.33;;
39654;SDS011;25336;59.944;11.010;2023-02-15T16:43:04;76.93;;;20.55;;
39654;SDS011;25336;59.944;11.010;2023-02-15T16:45:35;78.13;;;20.83;;
39654;SDS011;25336;59.944;11.010;2023-02-15T16:48:05;79.00;;;19.92;;
39654;SDS011;25336;59.944;11.010;2023-02-15T16:50:36;57.28;;;20.73;;
39654;SDS011;25336;59.944;11.010;2023-02-15T16:53:04;64.10;;;20.42;;
39654;SDS011;25336;59.944;11.010;2023-02-15T16:55:38;58.50;;;21.52;;
39654;SDS011;25336;59.944;11.010;2023-02-15T16:58:07;60.40;;;19.50;;
39654;SDS011;25336;59.944;11.010;2023-02-15T17:00:38;61.97;;;19.67;;
39654;SDS011;25336;59.944;11.010;2023-02-15T17:05:49;126.38;;;22.23;;
39654;SDS011;25336;59.944;11.010;2023-02-15T17:19:15;83.53;;;26.23;;
39654;SDS011;25336;59.944;11.010;2023-02-15T17:21:48;92.40;;;24.08;;
39654;SDS011;25336;59.944;11.010;2023-02-15T17:24:41;93.15;;;23.38;;
39654;SDS011;25336;59.944;11.010;2023-02-15T17:27:17;65.55;;;22.00;;
39654;SDS011;25336;59.944;11.010;2023-02-15T17:29:50;108.78;;;23.88;;
39654;SDS011;25336;59.944;11.010;2023-02-15T17:32:29;115.82;;;26.45;;
39654;SDS011;25336;59.944;11.010;2023-02-15T17:37:50;102.00;;;22.98;;
39654;SDS011;25336;59.944;11.010;2023-02-15T17:40:28;113.63;;;24.35;;
39654;SDS011;25336;59.944;11.010;2023-02-15T17:43:03;86.60;;;23.30;;
39654;SDS011;25336;59.944;11.010;2023-02-15T17:45:36;90.70;;;24.35;;
39654;SDS011;25336;59.944;11.010;2023-02-15T17:48:11;111.67;;;26.63;;
39654;SDS011;25336;59.944;11.010;2023-02-15T17:50:55;72.18;;;23.40;;
39654;SDS011;25336;59.944;11.010;2023-02-15T17:53:31;94.60;;;26.73;;
39654;SDS011;25336;59.944;11.010;2023-02-15T17:55:56;77.72;;;24.23;;
39654;SDS011;25336;59.944;11.010;2023-02-15T17:58:22;77.75;;;24.98;;
39654;SDS011;25336;59.944;11.010;2023-02-15T18:00:49;78.70;;;22.42;;
39654;SDS011;25336;59.944;11.010;2023-02-15T18:03:45;48.25;;;20.05;;
39654;SDS011;25336;59.944;11.010;2023-02-15T18:06:30;55.38;;;21.50;;
39654;SDS011;25336;59.944;11.010;2023-02-15T18:09:16;67.68;;;21.52;;
39654;SDS011;25336;59.944;11.010;2023-02-15T18:12:04;66.50;;;21.73;;
39654;SDS011;25336;59.944;11.010;2023-02-15T18:14:42;96.00;;;24.88;;
39654;SDS011;25336;59.944;11.010;2023-02-15T18:17:09;90.32;;;25.20;;
39654;SDS011;25336;59.944;11.010;2023-02-15T18:19:37;91.60;;;32.83;;
39654;SDS011;25336;59.944;11.010;2023-02-15T18:22:09;88.40;;;31.77;;
39654;SDS011;25336;59.944;11.010;2023-02-15T18:24:36;98.18;;;29.60;;
39654;SDS011;25336;59.944;11.010;2023-02-15T18:27:02;72.82;;;27.77;;
39654;SDS011;25336;59.944;11.010;2023-02-15T18:29:29;99.00;;;27.63;;